sensor_id;sensor_type;location;lat;lon;timestamp;P1;durP1;ratioP1;P2;durP2;ratioP2
19004;SDS011;9635;52.078;8.648;2023-06-04T00:03:12;7.78;;;2.45;;
19004;SDS011;9635;52.078;8.648;2023-06-04T00:08:15;4.35;;;2.05;;
19004;SDS011;9635;52.078;8.648;2023-06-04T00:13:18;4.82;;;2.67;;
19004;SDS011;9635;52.078;8.648;2023-06-04T00:18:22;4.10;;;1.95;;
19004;SDS011;9635;52.078;8.648;2023-06-04T00:23:25;4.68;;;2.30;;
19004;SDS011;9635;52.078;8.648;2023-06-04T00:28:28;2.40;;;1.80;;
19004;SDS011;9635;52.078;8.648;2023-06-04T00:33:32;4.70;;;2.10;;
19004;SDS011;9635;52.078;8.648;2023-06-04T00:38:36;4.05;;;2.03;;
19004;SDS011;9635;52.078;8.648;2023-06-04T00:43:39;3.60;;;2.00;;
19004;SDS011;9635;52.078;8.648;2023-06-04T00:48:48;5.10;;;2.40;;
19004;SDS011;9635;52.078;8.648;2023-06-04T00:53:51;3.03;;;1.80;;
19004;SDS011;9635;52.078;8.648;2023-06-04T00:58:54;2.70;;;2.10;;
19004;SDS011;9635;52.078;8.648;2023-06-04T01:03:59;3.60;;;1.88;;
19004;SDS011;9635;52.078;8.648;2023-06-04T01:09:03;4.43;;;2.03;;
19004;SDS011;9635;52.078;8.648;2023-06-04T01:14:08;4.07;;;1.90;;
19004;SDS011;9635;52.078;8.648;2023-06-04T01:19:18;2.50;;;2.00;;
19004;SDS011;9635;52.078;8.648;2023-06-04T01:24:38;2.50;;;1.90;;
19004;SDS011;9635;52.078;8.648;2023-06-04T01:29:47;2.17;;;1.60;;
19004;SDS011;9635;52.078;8.648;2023-06-04T01:34:51;4.18;;;2.15;;
19004;SDS011;9635;52.078;8.648;2023-06-04T01:39:54;3.90;;;2.10;;
19004;SDS011;9635;52.078;8.648;2023-06-04T01:50:01;5.65;;;2.03;;
19004;SDS011;9635;52.078;8.648;2023-06-04T01:55:04;2.03;;;1.60;;
19004;SDS011;9635;52.078;8.648;2023-06-04T02:00:09;2.20;;;1.83;;
19004;SDS011;9635;52.078;8.648;2023-06-04T02:05:14;3.10;;;1.70;;
19004;SDS011;9635;52.078;8.648;2023-06-04T02:10:18;2.78;;;1.67;;
19004;SDS011;9635;52.078;8.648;2023-06-04T02:22:10;1.75;;;1.58;;
19004;SDS011;9635;52.078;8.648;2023-06-04T02:27:13;3.47;;;2.28;;
19004;SDS011;9635;52.078;8.648;2023-06-04T02:32:16;2.88;;;2.10;;
19004;SDS011;9635;52.078;8.648;2023-06-04T02:37:22;2.08;;;1.88;;
19004;SDS011;9635;52.078;8.648;2023-06-04T02:42:24;1.83;;;1.40;;
19004;SDS011;9635;52.078;8.648;2023-06-04T02:52:31;3.80;;;1.75;;
19004;SDS011;9635;52.078;8.648;2023-06-04T02:57:39;4.88;;;2.00;;
19004;SDS011;9635;52.078;8.648;2023-06-04T03:02:43;3.78;;;1.80;;
19004;SDS011;9635;52.078;8.648;2023-06-04T03:07:50;3.25;;;1.83;;
19004;SDS011;9635;52.078;8.648;2023-06-04T03:12:53;4.63;;;2.22;;
19004;SDS011;9635;52.078;8.648;2023-06-04T03:23:00;2.78;;;1.90;;
19004;SDS011;9635;52.078;8.648;2023-06-04T03:28:03;3.35;;;1.95;;
19004;SDS011;9635;52.078;8.648;2023-06-04T03:33:07;4.65;;;2.33;;
19004;SDS011;9635;52.078;8.648;2023-06-04T03:38:11;4.72;;;2.17;;
19004;SDS011;9635;52.078;8.648;2023-06-04T03:43:14;3.33;;;2.33;;
19004;SDS011;9635;52.078;8.648;2023-06-04T03:48:17;3.55;;;2.13;;
19004;SDS011;9635;52.078;8.648;2023-06-04T03:53:23;2.50;;;2.22;;
19004;SDS011;9635;52.078;8.648;2023-06-04T03:58:26;4.55;;;2.60;;
19004;SDS011;9635;52.078;8.648;2023-06-04T04:03:30;2.80;;;2.35;;
19004;SDS011;9635;52.078;8.648;2023-06-04T04:08:36;2.35;;;2.10;;
19004;SDS011;9635;52.078;8.648;2023-06-04T04:13:44;4.32;;;2.33;;
19004;SDS011;9635;52.078;8.648;2023-06-04T04:18:47;5.78;;;2.40;;
19004;SDS011;9635;52.078;8.648;2023-06-04T04:23:51;2.65;;;1.95;;
19004;SDS011;9635;52.078;8.648;2023-06-04T04:28:54;3.72;;;2.40;;
19004;SDS011;9635;52.078;8.648;2023-06-04T04:34:01;5.13;;;2.10;;
19004;SDS011;9635;52.078;8.648;2023-06-04T04:39:15;2.72;;;2.05;;
19004;SDS011;9635;52.078;8.648;2023-06-04T04:44:18;2.70;;;2.20;;
19004;SDS011;9635;52.078;8.648;2023-06-04T04:49:21;3.50;;;2.28;;
19004;SDS011;9635;52.078;8.648;2023-06-04T04:54:26;3.83;;;2.55;;
19004;SDS011;9635;52.078;8.648;2023-06-04T04:59:28;4.47;;;1.98;;
19004;SDS011;9635;52.078;8.648;2023-06-04T05:04:33;4.20;;;2.72;;
19004;SDS011;9635;52.078;8.648;2023-06-04T05:09:38;2.75;;;2.22;;
19004;SDS011;9635;52.078;8.648;2023-06-04T05:14:43;3.67;;;2.10;;
19004;SDS011;9635;52.078;8.648;2023-06-04T05:19:47;3.90;;;2.45;;
19004;SDS011;9635;52.078;8.648;2023-06-04T05:24:51;5.78;;;2.50;;
19004;SDS011;9635;52.078;8.648;2023-06-04T05:29:54;3.00;;;2.28;;
19004;SDS011;9635;52.078;8.648;2023-06-04T05:34:57;4.70;;;2.72;;
19004;SDS011;9635;52.078;8.648;2023-06-04T05:40:07;3.33;;;2.05;;
19004;SDS011;9635;52.078;8.648;2023-06-04T05:45:12;3.40;;;2.10;;
19004;SDS011;9635;52.078;8.648;2023-06-04T05:50:16;3.97;;;2.25;;
19004;SDS011;9635;52.078;8.648;2023-06-04T05:55:21;3.33;;;2.28;;
19004;SDS011;9635;52.078;8.648;2023-06-04T06:00:25;3.38;;;2.75;;
19004;SDS011;9635;52.078;8.648;2023-06-04T06:05:28;2.55;;;2.33;;
19004;SDS011;9635;52.078;8.648;2023-06-04T06:10:32;4.30;;;2.42;;
19004;SDS011;9635;52.078;8.648;2023-06-04T06:15:35;3.45;;;2.22;;
19004;SDS011;9635;52.078;8.648;2023-06-04T06:20:38;4.07;;;2.63;;
19004;SDS011;9635;52.078;8.648;2023-06-04T06:25:42;3.58;;;2.40;;
19004;SDS011;9635;52.078;8.648;2023-06-04T06:31:00;5.25;;;2.30;;
19004;SDS011;9635;52.078;8.648;2023-06-04T06:36:03;3.05;;;1.92;;
19004;SDS011;9635;52.078;8.648;2023-06-04T06:41:07;3.42;;;2.00;;
19004;SDS011;9635;52.078;8.648;2023-06-04T06:46:10;5.18;;;2.17;;
19004;SDS011;9635;52.078;8.648;2023-06-04T06:51:13;3.17;;;2.08;;
19004;SDS011;9635;52.078;8.648;2023-06-04T06:56:17;3.45;;;2.40;;
19004;SDS011;9635;52.078;8.648;2023-06-04T07:01:20;4.85;;;1.98;;
19004;SDS011;9635;52.078;8.648;2023-06-04T07:06:23;3.35;;;2.47;;
19004;SDS011;9635;52.078;8.648;2023-06-04T07:11:27;5.25;;;2.17;;
19004;SDS011;9635;52.078;8.648;2023-06-04T07:16:30;2.90;;;2.40;;
19004;SDS011;9635;52.078;8.648;2023-06-04T07:21:33;1.88;;;1.70;;
19004;SDS011;9635;52.078;8.648;2023-06-04T07:26:37;4.38;;;2.38;;
19004;SDS011;9635;52.078;8.648;2023-06-04T07:31:40;2.90;;;2.20;;
19004;SDS011;9635;52.078;8.648;2023-06-04T07:36:43;5.80;;;2.28;;
19004;SDS011;9635;52.078;8.648;2023-06-04T07:41:47;3.63;;;1.98;;
19004;SDS011;9635;52.078;8.648;2023-06-04T07:46:50;1.73;;;1.55;;
19004;SDS011;9635;52.078;8.648;2023-06-04T07:51:53;2.20;;;1.50;;
19004;SDS011;9635;52.078;8.648;2023-06-04T07:56:57;5.15;;;1.75;;
19004;SDS011;9635;52.078;8.648;2023-06-04T08:02:00;4.43;;;1.58;;
19004;SDS011;9635;52.078;8.648;2023-06-04T08:07:02;3.08;;;1.35;;
19004;SDS011;9635;52.078;8.648;2023-06-04T08:12:07;5.10;;;1.50;;
19004;SDS011;9635;52.078;8.648;2023-06-04T08:17:11;1.88;;;1.20;;
19004;SDS011;9635;52.078;8.648;2023-06-04T08:22:14;1.38;;;1.13;;
19004;SDS011;9635;52.078;8.648;2023-06-04T08:27:19;2.13;;;1.20;;
19004;SDS011;9635;52.078;8.648;2023-06-04T08:32:22;3.80;;;2.25;;
19004;SDS011;9635;52.078;8.648;2023-06-04T08:37:25;2.97;;;1.27;;
19004;SDS011;9635;52.078;8.648;2023-06-04T08:42:30;3.88;;;1.30;;
19004;SDS011;9635;52.078;8.648;2023-06-04T08:47:36;7.82;;;2.17;;
19004;SDS011;9635;52.078;8.648;2023-06-04T08:52:40;1.40;;;1.10;;
19004;SDS011;9635;52.078;8.648;2023-06-04T08:57:44;1.95;;;1.17;;
19004;SDS011;9635;52.078;8.648;2023-06-04T09:02:49;3.25;;;1.52;;
19004;SDS011;9635;52.078;8.648;2023-06-04T09:07:53;2.10;;;1.10;;
19004;SDS011;9635;52.078;8.648;2023-06-04T09:13:00;1.60;;;1.10;;
19004;SDS011;9635;52.078;8.648;2023-06-04T09:18:05;4.13;;;1.48;;
19004;SDS011;9635;52.078;8.648;2023-06-04T09:23:17;3.30;;;1.10;;
19004;SDS011;9635;52.078;8.648;2023-06-04T09:28:21;3.33;;;1.00;;
19004;SDS011;9635;52.078;8.648;2023-06-04T09:33:24;3.17;;;1.23;;
19004;SDS011;9635;52.078;8.648;2023-06-04T09:38:34;2.08;;;1.90;;
19004;SDS011;9635;52.078;8.648;2023-06-04T09:43:39;4.88;;;1.27;;
19004;SDS011;9635;52.078;8.648;2023-06-04T09:48:42;2.58;;;1.20;;
19004;SDS011;9635;52.078;8.648;2023-06-04T09:53:52;4.07;;;1.52;;
19004;SDS011;9635;52.078;8.648;2023-06-04T09:58:59;3.60;;;1.60;;
19004;SDS011;9635;52.078;8.648;2023-06-04T10:04:03;3.60;;;1.50;;
19004;SDS011;9635;52.078;8.648;2023-06-04T10:09:06;4.97;;;1.70;;
19004;SDS011;9635;52.078;8.648;2023-06-04T10:14:13;2.95;;;1.70;;
19004;SDS011;9635;52.078;8.648;2023-06-04T10:19:22;1.95;;;1.30;;
19004;SDS011;9635;52.078;8.648;2023-06-04T10:24:25;3.83;;;1.63;;
19004;SDS011;9635;52.078;8.648;2023-06-04T10:29:30;2.08;;;1.88;;
19004;SDS011;9635;52.078;8.648;2023-06-04T10:34:34;3.20;;;1.70;;
19004;SDS011;9635;52.078;8.648;2023-06-04T10:39:37;2.88;;;1.50;;
19004;SDS011;9635;52.078;8.648;2023-06-04T10:44:45;2.67;;;1.40;;
19004;SDS011;9635;52.078;8.648;2023-06-04T10:49:49;2.15;;;1.65;;
19004;SDS011;9635;52.078;8.648;2023-06-04T10:55:02;2.45;;;1.38;;
19004;SDS011;9635;52.078;8.648;2023-06-04T11:00:08;1.95;;;1.70;;
19004;SDS011;9635;52.078;8.648;2023-06-04T11:05:13;3.22;;;1.63;;
19004;SDS011;9635;52.078;8.648;2023-06-04T11:10:16;1.60;;;1.40;;
19004;SDS011;9635;52.078;8.648;2023-06-04T11:15:21;2.72;;;1.52;;
19004;SDS011;9635;52.078;8.648;2023-06-04T11:20:24;1.60;;;1.45;;
19004;SDS011;9635;52.078;8.648;2023-06-04T11:25:27;1.67;;;1.58;;
19004;SDS011;9635;52.078;8.648;2023-06-04T11:30:32;2.05;;;1.60;;
19004;SDS011;9635;52.078;8.648;2023-06-04T11:35:39;3.00;;;1.67;;
19004;SDS011;9635;52.078;8.648;2023-06-04T11:40:43;4.57;;;1.67;;
19004;SDS011;9635;52.078;8.648;2023-06-04T11:45:48;3.85;;;1.63;;
19004;SDS011;9635;52.078;8.648;2023-06-04T11:50:51;1.77;;;1.27;;
19004;SDS011;9635;52.078;8.648;2023-06-04T11:55:54;5.68;;;1.42;;
19004;SDS011;9635;52.078;8.648;2023-06-04T12:00:58;2.35;;;1.65;;
19004;SDS011;9635;52.078;8.648;2023-06-04T12:06:11;1.90;;;1.45;;
19004;SDS011;9635;52.078;8.648;2023-06-04T12:11:25;2.03;;;1.30;;
19004;SDS011;9635;52.078;8.648;2023-06-04T12:16:30;1.20;;;1.10;;
19004;SDS011;9635;52.078;8.648;2023-06-04T12:21:34;2.72;;;1.30;;
19004;SDS011;9635;52.078;8.648;2023-06-04T12:26:37;2.08;;;1.48;;
19004;SDS011;9635;52.078;8.648;2023-06-04T12:31:43;3.95;;;1.20;;
19004;SDS011;9635;52.078;8.648;2023-06-04T12:36:48;2.45;;;1.10;;
19004;SDS011;9635;52.078;8.648;2023-06-04T12:41:51;1.30;;;1.20;;
19004;SDS011;9635;52.078;8.648;2023-06-04T12:46:55;2.38;;;1.20;;
19004;SDS011;9635;52.078;8.648;2023-06-04T12:51:58;2.83;;;1.40;;
19004;SDS011;9635;52.078;8.648;2023-06-04T12:57:01;2.10;;;1.10;;
19004;SDS011;9635;52.078;8.648;2023-06-04T13:02:05;3.60;;;1.10;;
19004;SDS011;9635;52.078;8.648;2023-06-04T13:07:08;1.35;;;1.13;;
19004;SDS011;9635;52.078;8.648;2023-06-04T13:12:11;2.63;;;1.38;;
19004;SDS011;9635;52.078;8.648;2023-06-04T13:17:16;3.72;;;0.98;;
19004;SDS011;9635;52.078;8.648;2023-06-04T13:22:23;3.55;;;1.17;;
19004;SDS011;9635;52.078;8.648;2023-06-04T13:27:26;1.25;;;1.00;;
19004;SDS011;9635;52.078;8.648;2023-06-04T13:32:30;4.10;;;1.00;;
19004;SDS011;9635;52.078;8.648;2023-06-04T13:37:33;1.35;;;0.95;;
19004;SDS011;9635;52.078;8.648;2023-06-04T13:42:36;1.48;;;0.95;;
19004;SDS011;9635;52.078;8.648;2023-06-04T13:47:40;1.08;;;0.98;;
19004;SDS011;9635;52.078;8.648;2023-06-04T13:52:43;1.30;;;0.88;;
19004;SDS011;9635;52.078;8.648;2023-06-04T13:57:46;1.63;;;1.02;;
19004;SDS011;9635;52.078;8.648;2023-06-04T14:02:51;1.73;;;1.20;;
19004;SDS011;9635;52.078;8.648;2023-06-04T14:07:56;2.60;;;1.10;;
19004;SDS011;9635;52.078;8.648;2023-06-04T14:12:59;1.40;;;1.05;;
19004;SDS011;9635;52.078;8.648;2023-06-04T14:18:04;4.65;;;1.42;;
19004;SDS011;9635;52.078;8.648;2023-06-04T14:23:09;1.73;;;1.20;;
19004;SDS011;9635;52.078;8.648;2023-06-04T14:28:13;1.45;;;1.08;;
19004;SDS011;9635;52.078;8.648;2023-06-04T14:33:17;1.15;;;1.00;;
19004;SDS011;9635;52.078;8.648;2023-06-04T14:38:21;1.92;;;1.10;;
19004;SDS011;9635;52.078;8.648;2023-06-04T14:43:24;1.50;;;0.98;;
19004;SDS011;9635;52.078;8.648;2023-06-04T14:48:28;1.52;;;1.00;;
19004;SDS011;9635;52.078;8.648;2023-06-04T14:53:31;2.33;;;1.02;;
19004;SDS011;9635;52.078;8.648;2023-06-04T14:58:34;1.25;;;1.15;;
19004;SDS011;9635;52.078;8.648;2023-06-04T15:03:39;1.75;;;1.00;;
19004;SDS011;9635;52.078;8.648;2023-06-04T15:08:42;1.38;;;1.27;;
19004;SDS011;9635;52.078;8.648;2023-06-04T15:13:45;2.95;;;1.45;;
19004;SDS011;9635;52.078;8.648;2023-06-04T15:18:49;2.47;;;1.10;;
19004;SDS011;9635;52.078;8.648;2023-06-04T15:23:52;2.85;;;1.08;;
19004;SDS011;9635;52.078;8.648;2023-06-04T15:28:55;1.30;;;0.98;;
19004;SDS011;9635;52.078;8.648;2023-06-04T15:33:59;1.85;;;1.00;;
19004;SDS011;9635;52.078;8.648;2023-06-04T15:39:02;1.02;;;0.93;;
19004;SDS011;9635;52.078;8.648;2023-06-04T15:44:05;1.02;;;1.00;;
19004;SDS011;9635;52.078;8.648;2023-06-04T15:49:10;1.15;;;1.00;;
19004;SDS011;9635;52.078;8.648;2023-06-04T15:54:12;1.88;;;1.17;;
19004;SDS011;9635;52.078;8.648;2023-06-04T15:59:16;1.20;;;1.10;;
19004;SDS011;9635;52.078;8.648;2023-06-04T16:04:20;1.23;;;1.13;;
19004;SDS011;9635;52.078;8.648;2023-06-04T16:09:23;2.13;;;0.88;;
19004;SDS011;9635;52.078;8.648;2023-06-04T16:14:26;2.70;;;1.17;;
19004;SDS011;9635;52.078;8.648;2023-06-04T16:19:30;3.75;;;1.05;;
19004;SDS011;9635;52.078;8.648;2023-06-04T16:24:33;2.72;;;1.30;;
19004;SDS011;9635;52.078;8.648;2023-06-04T16:29:36;1.75;;;1.20;;
19004;SDS011;9635;52.078;8.648;2023-06-04T16:34:40;2.70;;;0.93;;
19004;SDS011;9635;52.078;8.648;2023-06-04T16:39:43;1.52;;;1.42;;
19004;SDS011;9635;52.078;8.648;2023-06-04T16:44:46;1.83;;;0.90;;
19004;SDS011;9635;52.078;8.648;2023-06-04T16:49:51;2.65;;;1.40;;
19004;SDS011;9635;52.078;8.648;2023-06-04T16:54:56;1.30;;;1.20;;
19004;SDS011;9635;52.078;8.648;2023-06-04T17:00:00;1.00;;;0.90;;
19004;SDS011;9635;52.078;8.648;2023-06-04T17:05:24;3.22;;;0.98;;
19004;SDS011;9635;52.078;8.648;2023-06-04T17:10:28;2.80;;;1.33;;
19004;SDS011;9635;52.078;8.648;2023-06-04T17:15:33;3.70;;;1.30;;
19004;SDS011;9635;52.078;8.648;2023-06-04T17:20:38;1.65;;;1.20;;
19004;SDS011;9635;52.078;8.648;2023-06-04T17:25:41;1.88;;;1.20;;
19004;SDS011;9635;52.078;8.648;2023-06-04T17:30:44;1.35;;;1.05;;
19004;SDS011;9635;52.078;8.648;2023-06-04T17:35:49;1.52;;;1.25;;
19004;SDS011;9635;52.078;8.648;2023-06-04T17:40:52;1.50;;;1.20;;
19004;SDS011;9635;52.078;8.648;2023-06-04T17:45:55;2.67;;;1.30;;
19004;SDS011;9635;52.078;8.648;2023-06-04T17:51:00;1.85;;;1.10;;
19004;SDS011;9635;52.078;8.648;2023-06-04T17:56:02;1.38;;;1.00;;
19004;SDS011;9635;52.078;8.648;2023-06-04T18:01:06;3.60;;;1.05;;
19004;SDS011;9635;52.078;8.648;2023-06-04T18:06:10;3.72;;;1.10;;
19004;SDS011;9635;52.078;8.648;2023-06-04T18:11:13;1.13;;;0.98;;
19004;SDS011;9635;52.078;8.648;2023-06-04T18:16:16;2.63;;;1.08;;
19004;SDS011;9635;52.078;8.648;2023-06-04T18:21:20;1.73;;;1.45;;
19004;SDS011;9635;52.078;8.648;2023-06-04T18:26:23;1.75;;;1.30;;
19004;SDS011;9635;52.078;8.648;2023-06-04T18:31:26;3.75;;;1.20;;
19004;SDS011;9635;52.078;8.648;2023-06-04T18:36:31;2.63;;;1.25;;
19004;SDS011;9635;52.078;8.648;2023-06-04T18:41:34;3.33;;;1.10;;
19004;SDS011;9635;52.078;8.648;2023-06-04T18:46:37;2.25;;;1.30;;
19004;SDS011;9635;52.078;8.648;2023-06-04T18:51:41;1.58;;;1.48;;
19004;SDS011;9635;52.078;8.648;2023-06-04T18:56:44;3.97;;;1.30;;
19004;SDS011;9635;52.078;8.648;2023-06-04T19:01:47;1.67;;;1.13;;
19004;SDS011;9635;52.078;8.648;2023-06-04T19:06:52;3.17;;;1.60;;
19004;SDS011;9635;52.078;8.648;2023-06-04T19:11:55;3.70;;;1.40;;
19004;SDS011;9635;52.078;8.648;2023-06-04T19:16:59;1.85;;;1.70;;
19004;SDS011;9635;52.078;8.648;2023-06-04T19:22:04;2.45;;;1.50;;
19004;SDS011;9635;52.078;8.648;2023-06-04T19:27:07;6.03;;;1.70;;
19004;SDS011;9635;52.078;8.648;2023-06-04T19:32:10;6.18;;;2.08;;
19004;SDS011;9635;52.078;8.648;2023-06-04T19:37:15;5.85;;;2.30;;
19004;SDS011;9635;52.078;8.648;2023-06-04T19:42:18;5.63;;;2.10;;
19004;SDS011;9635;52.078;8.648;2023-06-04T19:47:21;10.25;;;2.10;;
19004;SDS011;9635;52.078;8.648;2023-06-04T19:52:26;4.80;;;2.25;;
19004;SDS011;9635;52.078;8.648;2023-06-04T19:57:29;8.57;;;2.60;;
19004;SDS011;9635;52.078;8.648;2023-06-04T20:02:31;3.80;;;2.08;;
19004;SDS011;9635;52.078;8.648;2023-06-04T20:07:36;7.97;;;2.33;;
19004;SDS011;9635;52.078;8.648;2023-06-04T20:12:38;5.82;;;2.55;;
19004;SDS011;9635;52.078;8.648;2023-06-04T20:17:41;10.13;;;2.40;;
19004;SDS011;9635;52.078;8.648;2023-06-04T20:22:46;3.70;;;2.17;;
19004;SDS011;9635;52.078;8.648;2023-06-04T20:27:49;3.50;;;1.88;;
19004;SDS011;9635;52.078;8.648;2023-06-04T20:32:52;5.07;;;1.92;;
19004;SDS011;9635;52.078;8.648;2023-06-04T20:37:56;8.10;;;2.50;;
19004;SDS011;9635;52.078;8.648;2023-06-04T20:43:02;8.25;;;2.28;;
19004;SDS011;9635;52.078;8.648;2023-06-04T20:48:05;3.55;;;2.00;;
19004;SDS011;9635;52.078;8.648;2023-06-04T20:53:09;4.28;;;2.03;;
19004;SDS011;9635;52.078;8.648;2023-06-04T20:58:12;5.20;;;1.90;;
19004;SDS011;9635;52.078;8.648;2023-06-04T21:03:15;5.18;;;2.08;;
19004;SDS011;9635;52.078;8.648;2023-06-04T21:08:19;4.68;;;2.08;;
19004;SDS011;9635;52.078;8.648;2023-06-04T21:13:22;6.70;;;2.40;;
19004;SDS011;9635;52.078;8.648;2023-06-04T21:18:25;4.32;;;2.00;;
19004;SDS011;9635;52.078;8.648;2023-06-04T21:23:30;5.25;;;2.30;;
19004;SDS011;9635;52.078;8.648;2023-06-04T21:28:33;6.40;;;2.25;;
19004;SDS011;9635;52.078;8.648;2023-06-04T21:33:36;7.53;;;2.40;;
19004;SDS011;9635;52.078;8.648;2023-06-04T21:38:41;4.22;;;2.05;;
19004;SDS011;9635;52.078;8.648;2023-06-04T21:43:44;4.30;;;2.08;;
19004;SDS011;9635;52.078;8.648;2023-06-04T21:48:47;6.45;;;2.50;;
19004;SDS011;9635;52.078;8.648;2023-06-04T21:53:51;4.13;;;2.13;;
19004;SDS011;9635;52.078;8.648;2023-06-04T21:58:54;4.18;;;2.40;;
19004;SDS011;9635;52.078;8.648;2023-06-04T22:03:57;6.35;;;2.58;;
19004;SDS011;9635;52.078;8.648;2023-06-04T22:09:02;8.23;;;2.42;;
19004;SDS011;9635;52.078;8.648;2023-06-04T22:14:05;8.20;;;3.22;;
19004;SDS011;9635;52.078;8.648;2023-06-04T22:19:07;4.75;;;2.42;;
19004;SDS011;9635;52.078;8.648;2023-06-04T22:24:12;4.70;;;2.35;;
19004;SDS011;9635;52.078;8.648;2023-06-04T22:29:15;5.57;;;2.50;;
19004;SDS011;9635;52.078;8.648;2023-06-04T22:34:18;5.10;;;2.42;;
19004;SDS011;9635;52.078;8.648;2023-06-04T22:39:22;4.40;;;2.50;;
19004;SDS011;9635;52.078;8.648;2023-06-04T22:44:25;4.45;;;2.38;;
19004;SDS011;9635;52.078;8.648;2023-06-04T22:49:28;3.13;;;1.90;;
19004;SDS011;9635;52.078;8.648;2023-06-04T22:54:32;7.10;;;2.90;;
19004;SDS011;9635;52.078;8.648;2023-06-04T22:59:35;7.15;;;2.47;;
19004;SDS011;9635;52.078;8.648;2023-06-04T23:04:38;3.42;;;2.45;;
19004;SDS011;9635;52.078;8.648;2023-06-04T23:09:42;6.72;;;2.47;;
19004;SDS011;9635;52.078;8.648;2023-06-04T23:14:45;4.70;;;2.80;;
19004;SDS011;9635;52.078;8.648;2023-06-04T23:19:48;4.03;;;2.72;;
19004;SDS011;9635;52.078;8.648;2023-06-04T23:24:52;4.05;;;2.70;;
19004;SDS011;9635;52.078;8.648;2023-06-04T23:29:56;5.97;;;2.92;;
19004;SDS011;9635;52.078;8.648;2023-06-04T23:34:59;10.15;;;2.83;;
19004;SDS011;9635;52.078;8.648;2023-06-04T23:40:03;8.05;;;3.08;;
19004;SDS011;9635;52.078;8.648;2023-06-04T23:45:07;4.93;;;2.95;;
19004;SDS011;9635;52.078;8.648;2023-06-04T23:50:11;8.10;;;3.03;;
19004;SDS011;9635;52.078;8.648;2023-06-04T23:55:15;5.70;;;3.35;;
